sensor_id;sensor_type;location;lat;lon;timestamp;P1;durP1;ratioP1;P2;durP2;ratioP2
38629;SDS011;24384;51.988;4.644;2023-07-22T00:01:30;14.95;;;10.48;;
38629;SDS011;24384;51.988;4.644;2023-07-22T00:03:56;17.40;;;11.75;;
38629;SDS011;24384;51.988;4.644;2023-07-22T00:06:21;17.55;;;11.13;;
38629;SDS011;24384;51.988;4.644;2023-07-22T00:08:46;14.90;;;10.45;;
38629;SDS011;24384;51.988;4.644;2023-07-22T00:11:12;18.83;;;11.75;;
38629;SDS011;24384;51.988;4.644;2023-07-22T00:13:37;14.85;;;10.35;;
38629;SDS011;24384;51.988;4.644;2023-07-22T00:16:02;20.85;;;11.40;;
38629;SDS011;24384;51.988;4.644;2023-07-22T00:18:29;14.65;;;10.50;;
38629;SDS011;24384;51.988;4.644;2023-07-22T00:20:55;15.32;;;10.50;;
38629;SDS011;24384;51.988;4.644;2023-07-22T00:23:21;19.13;;;10.43;;
38629;SDS011;24384;51.988;4.644;2023-07-22T00:25:47;17.88;;;11.20;;
38629;SDS011;24384;51.988;4.644;2023-07-22T00:28:12;14.85;;;9.55;;
38629;SDS011;24384;51.988;4.644;2023-07-22T00:30:38;17.63;;;11.48;;
38629;SDS011;24384;51.988;4.644;2023-07-22T00:33:03;15.68;;;10.43;;
38629;SDS011;24384;51.988;4.644;2023-07-22T00:35:29;15.85;;;10.48;;
38629;SDS011;24384;51.988;4.644;2023-07-22T00:37:55;15.25;;;11.02;;
38629;SDS011;24384;51.988;4.644;2023-07-22T00:40:21;19.23;;;11.20;;
38629;SDS011;24384;51.988;4.644;2023-07-22T00:42:47;19.95;;;10.95;;
38629;SDS011;24384;51.988;4.644;2023-07-22T00:45:13;21.17;;;10.80;;
38629;SDS011;24384;51.988;4.644;2023-07-22T00:47:38;17.90;;;11.70;;
38629;SDS011;24384;51.988;4.644;2023-07-22T00:50:04;20.23;;;11.20;;
38629;SDS011;24384;51.988;4.644;2023-07-22T00:52:32;20.77;;;10.52;;
38629;SDS011;24384;51.988;4.644;2023-07-22T00:54:58;18.27;;;11.13;;
38629;SDS011;24384;51.988;4.644;2023-07-22T00:57:24;18.20;;;11.32;;
38629;SDS011;24384;51.988;4.644;2023-07-22T00:59:50;15.48;;;11.32;;
38629;SDS011;24384;51.988;4.644;2023-07-22T01:02:15;19.10;;;11.10;;
38629;SDS011;24384;51.988;4.644;2023-07-22T01:04:41;19.85;;;11.65;;
38629;SDS011;24384;51.988;4.644;2023-07-22T01:07:07;16.15;;;9.65;;
38629;SDS011;24384;51.988;4.644;2023-07-22T01:09:36;19.08;;;10.52;;
38629;SDS011;24384;51.988;4.644;2023-07-22T01:12:02;17.73;;;10.82;;
38629;SDS011;24384;51.988;4.644;2023-07-22T01:14:28;18.65;;;11.50;;
38629;SDS011;24384;51.988;4.644;2023-07-22T01:16:53;16.55;;;10.40;;
38629;SDS011;24384;51.988;4.644;2023-07-22T01:19:19;16.23;;;9.85;;
38629;SDS011;24384;51.988;4.644;2023-07-22T01:21:44;16.80;;;11.32;;
38629;SDS011;24384;51.988;4.644;2023-07-22T01:24:11;13.52;;;9.70;;
38629;SDS011;24384;51.988;4.644;2023-07-22T01:26:38;15.05;;;9.48;;
38629;SDS011;24384;51.988;4.644;2023-07-22T01:29:04;14.65;;;9.55;;
38629;SDS011;24384;51.988;4.644;2023-07-22T01:31:31;15.38;;;10.30;;
38629;SDS011;24384;51.988;4.644;2023-07-22T01:33:59;14.32;;;9.25;;
38629;SDS011;24384;51.988;4.644;2023-07-22T01:36:24;14.05;;;9.32;;
38629;SDS011;24384;51.988;4.644;2023-07-22T01:38:50;14.18;;;8.82;;
38629;SDS011;24384;51.988;4.644;2023-07-22T01:41:15;12.80;;;9.60;;
38629;SDS011;24384;51.988;4.644;2023-07-22T01:43:40;13.00;;;8.70;;
38629;SDS011;24384;51.988;4.644;2023-07-22T01:46:06;12.07;;;8.05;;
38629;SDS011;24384;51.988;4.644;2023-07-22T01:48:31;12.27;;;8.95;;
38629;SDS011;24384;51.988;4.644;2023-07-22T01:50:57;17.88;;;8.45;;
38629;SDS011;24384;51.988;4.644;2023-07-22T01:53:22;12.85;;;7.82;;
38629;SDS011;24384;51.988;4.644;2023-07-22T01:55:47;11.77;;;7.75;;
38629;SDS011;24384;51.988;4.644;2023-07-22T01:58:12;12.63;;;8.25;;
38629;SDS011;24384;51.988;4.644;2023-07-22T02:00:38;14.10;;;7.47;;
38629;SDS011;24384;51.988;4.644;2023-07-22T02:03:03;15.48;;;7.97;;
38629;SDS011;24384;51.988;4.644;2023-07-22T02:05:28;9.90;;;7.05;;
38629;SDS011;24384;51.988;4.644;2023-07-22T02:07:55;14.18;;;7.28;;
38629;SDS011;24384;51.988;4.644;2023-07-22T02:10:20;10.85;;;7.60;;
38629;SDS011;24384;51.988;4.644;2023-07-22T02:12:46;14.30;;;6.93;;
38629;SDS011;24384;51.988;4.644;2023-07-22T02:15:11;10.48;;;7.18;;
38629;SDS011;24384;51.988;4.644;2023-07-22T02:17:37;9.10;;;6.65;;
38629;SDS011;24384;51.988;4.644;2023-07-22T02:20:02;9.57;;;7.22;;
38629;SDS011;24384;51.988;4.644;2023-07-22T02:22:29;12.60;;;7.32;;
38629;SDS011;24384;51.988;4.644;2023-07-22T02:24:54;12.90;;;8.02;;
38629;SDS011;24384;51.988;4.644;2023-07-22T02:27:20;14.50;;;8.25;;
38629;SDS011;24384;51.988;4.644;2023-07-22T02:29:45;11.02;;;6.85;;
38629;SDS011;24384;51.988;4.644;2023-07-22T02:32:12;13.75;;;8.75;;
38629;SDS011;24384;51.988;4.644;2023-07-22T02:34:37;10.30;;;7.57;;
38629;SDS011;24384;51.988;4.644;2023-07-22T02:37:03;11.52;;;8.05;;
38629;SDS011;24384;51.988;4.644;2023-07-22T02:39:29;23.27;;;10.02;;
38629;SDS011;24384;51.988;4.644;2023-07-22T02:41:54;14.00;;;8.75;;
38629;SDS011;24384;51.988;4.644;2023-07-22T02:44:19;13.60;;;7.60;;
38629;SDS011;24384;51.988;4.644;2023-07-22T02:46:44;12.88;;;8.18;;
38629;SDS011;24384;51.988;4.644;2023-07-22T02:49:10;8.63;;;6.45;;
38629;SDS011;24384;51.988;4.644;2023-07-22T02:51:35;11.13;;;7.00;;
38629;SDS011;24384;51.988;4.644;2023-07-22T02:54:00;11.00;;;6.93;;
38629;SDS011;24384;51.988;4.644;2023-07-22T02:56:26;9.18;;;6.13;;
38629;SDS011;24384;51.988;4.644;2023-07-22T02:58:51;11.77;;;6.30;;
38629;SDS011;24384;51.988;4.644;2023-07-22T03:01:16;10.57;;;6.78;;
38629;SDS011;24384;51.988;4.644;2023-07-22T03:03:41;9.73;;;5.57;;
38629;SDS011;24384;51.988;4.644;2023-07-22T03:06:07;8.30;;;5.70;;
38629;SDS011;24384;51.988;4.644;2023-07-22T03:08:34;8.85;;;5.65;;
38629;SDS011;24384;51.988;4.644;2023-07-22T03:11:00;8.70;;;5.40;;
38629;SDS011;24384;51.988;4.644;2023-07-22T03:13:25;6.90;;;5.20;;
38629;SDS011;24384;51.988;4.644;2023-07-22T03:15:54;8.73;;;5.88;;
38629;SDS011;24384;51.988;4.644;2023-07-22T03:18:20;6.85;;;5.25;;
38629;SDS011;24384;51.988;4.644;2023-07-22T03:20:45;12.60;;;5.63;;
38629;SDS011;24384;51.988;4.644;2023-07-22T03:23:11;8.40;;;5.03;;
38629;SDS011;24384;51.988;4.644;2023-07-22T03:25:36;8.27;;;4.82;;
38629;SDS011;24384;51.988;4.644;2023-07-22T03:28:05;7.63;;;4.22;;
38629;SDS011;24384;51.988;4.644;2023-07-22T03:30:31;5.93;;;4.47;;
38629;SDS011;24384;51.988;4.644;2023-07-22T03:32:57;8.50;;;4.22;;
38629;SDS011;24384;51.988;4.644;2023-07-22T03:35:22;8.52;;;4.47;;
38629;SDS011;24384;51.988;4.644;2023-07-22T03:37:48;10.68;;;4.03;;
38629;SDS011;24384;51.988;4.644;2023-07-22T03:40:13;12.13;;;4.82;;
38629;SDS011;24384;51.988;4.644;2023-07-22T03:42:44;7.50;;;4.40;;
38629;SDS011;24384;51.988;4.644;2023-07-22T03:45:10;14.50;;;6.53;;
38629;SDS011;24384;51.988;4.644;2023-07-22T03:47:35;13.15;;;6.63;;
38629;SDS011;24384;51.988;4.644;2023-07-22T03:50:01;13.55;;;6.18;;
38629;SDS011;24384;51.988;4.644;2023-07-22T03:52:26;12.77;;;6.18;;
38629;SDS011;24384;51.988;4.644;2023-07-22T03:54:51;23.05;;;8.57;;
38629;SDS011;24384;51.988;4.644;2023-07-22T03:57:17;15.35;;;7.90;;
38629;SDS011;24384;51.988;4.644;2023-07-22T03:59:42;21.67;;;8.35;;
38629;SDS011;24384;51.988;4.644;2023-07-22T04:02:07;18.92;;;9.18;;
38629;SDS011;24384;51.988;4.644;2023-07-22T04:04:32;17.77;;;10.85;;
38629;SDS011;24384;51.988;4.644;2023-07-22T04:06:58;19.45;;;9.50;;
38629;SDS011;24384;51.988;4.644;2023-07-22T04:09:23;20.65;;;11.10;;
38629;SDS011;24384;51.988;4.644;2023-07-22T04:11:48;20.20;;;10.65;;
38629;SDS011;24384;51.988;4.644;2023-07-22T04:14:14;22.08;;;10.75;;
38629;SDS011;24384;51.988;4.644;2023-07-22T04:16:39;20.48;;;12.27;;
38629;SDS011;24384;51.988;4.644;2023-07-22T04:19:05;21.80;;;12.57;;
38629;SDS011;24384;51.988;4.644;2023-07-22T04:21:30;20.98;;;11.57;;
38629;SDS011;24384;51.988;4.644;2023-07-22T04:23:55;25.85;;;12.68;;
38629;SDS011;24384;51.988;4.644;2023-07-22T04:26:20;24.85;;;14.05;;
38629;SDS011;24384;51.988;4.644;2023-07-22T04:28:46;21.73;;;13.93;;
38629;SDS011;24384;51.988;4.644;2023-07-22T04:31:11;25.60;;;13.65;;
38629;SDS011;24384;51.988;4.644;2023-07-22T04:33:36;29.40;;;15.43;;
38629;SDS011;24384;51.988;4.644;2023-07-22T04:36:02;36.30;;;16.55;;
38629;SDS011;24384;51.988;4.644;2023-07-22T04:38:27;33.85;;;17.20;;
38629;SDS011;24384;51.988;4.644;2023-07-22T04:40:53;27.73;;;15.23;;
38629;SDS011;24384;51.988;4.644;2023-07-22T04:43:18;28.15;;;15.57;;
38629;SDS011;24384;51.988;4.644;2023-07-22T04:45:44;27.33;;;14.52;;
38629;SDS011;24384;51.988;4.644;2023-07-22T04:48:10;28.73;;;14.88;;
38629;SDS011;24384;51.988;4.644;2023-07-22T04:50:36;28.85;;;14.80;;
38629;SDS011;24384;51.988;4.644;2023-07-22T04:53:01;30.67;;;17.08;;
38629;SDS011;24384;51.988;4.644;2023-07-22T04:55:27;34.17;;;18.08;;
38629;SDS011;24384;51.988;4.644;2023-07-22T04:57:55;32.42;;;17.50;;
38629;SDS011;24384;51.988;4.644;2023-07-22T05:00:20;40.00;;;17.30;;
38629;SDS011;24384;51.988;4.644;2023-07-22T05:02:46;34.30;;;16.20;;
38629;SDS011;24384;51.988;4.644;2023-07-22T05:05:14;35.55;;;18.42;;
38629;SDS011;24384;51.988;4.644;2023-07-22T05:07:40;43.03;;;19.30;;
38629;SDS011;24384;51.988;4.644;2023-07-22T05:10:05;32.33;;;17.27;;
38629;SDS011;24384;51.988;4.644;2023-07-22T05:12:32;36.55;;;18.35;;
38629;SDS011;24384;51.988;4.644;2023-07-22T05:14:57;35.38;;;19.70;;
38629;SDS011;24384;51.988;4.644;2023-07-22T05:17:22;35.55;;;17.83;;
38629;SDS011;24384;51.988;4.644;2023-07-22T05:19:48;33.65;;;17.77;;
38629;SDS011;24384;51.988;4.644;2023-07-22T05:22:14;36.90;;;18.70;;
38629;SDS011;24384;51.988;4.644;2023-07-22T05:24:39;33.88;;;17.30;;
38629;SDS011;24384;51.988;4.644;2023-07-22T05:27:04;33.22;;;17.73;;
38629;SDS011;24384;51.988;4.644;2023-07-22T05:29:30;33.78;;;17.67;;
38629;SDS011;24384;51.988;4.644;2023-07-22T05:31:55;33.50;;;17.65;;
38629;SDS011;24384;51.988;4.644;2023-07-22T05:34:20;32.05;;;19.17;;
38629;SDS011;24384;51.988;4.644;2023-07-22T05:36:45;38.50;;;19.48;;
38629;SDS011;24384;51.988;4.644;2023-07-22T05:39:11;32.08;;;18.05;;
38629;SDS011;24384;51.988;4.644;2023-07-22T05:41:36;33.67;;;18.15;;
38629;SDS011;24384;51.988;4.644;2023-07-22T05:44:01;40.28;;;18.20;;
38629;SDS011;24384;51.988;4.644;2023-07-22T05:46:27;30.77;;;17.55;;
38629;SDS011;24384;51.988;4.644;2023-07-22T05:48:52;27.83;;;16.77;;
38629;SDS011;24384;51.988;4.644;2023-07-22T05:51:17;30.95;;;16.75;;
38629;SDS011;24384;51.988;4.644;2023-07-22T05:53:44;32.75;;;17.25;;
38629;SDS011;24384;51.988;4.644;2023-07-22T05:56:09;31.08;;;16.15;;
38629;SDS011;24384;51.988;4.644;2023-07-22T05:58:35;33.13;;;17.42;;
38629;SDS011;24384;51.988;4.644;2023-07-22T06:01:01;31.23;;;18.65;;
38629;SDS011;24384;51.988;4.644;2023-07-22T06:03:26;29.60;;;18.55;;
38629;SDS011;24384;51.988;4.644;2023-07-22T06:05:51;29.90;;;15.75;;
38629;SDS011;24384;51.988;4.644;2023-07-22T06:08:16;25.23;;;16.33;;
38629;SDS011;24384;51.988;4.644;2023-07-22T06:10:42;24.63;;;16.42;;
38629;SDS011;24384;51.988;4.644;2023-07-22T06:13:07;35.63;;;18.75;;
38629;SDS011;24384;51.988;4.644;2023-07-22T06:15:33;29.98;;;17.90;;
38629;SDS011;24384;51.988;4.644;2023-07-22T06:17:58;37.33;;;17.55;;
38629;SDS011;24384;51.988;4.644;2023-07-22T06:20:25;25.20;;;15.73;;
38629;SDS011;24384;51.988;4.644;2023-07-22T06:22:50;38.85;;;18.17;;
38629;SDS011;24384;51.988;4.644;2023-07-22T06:25:16;31.85;;;17.95;;
38629;SDS011;24384;51.988;4.644;2023-07-22T06:27:41;34.83;;;17.98;;
38629;SDS011;24384;51.988;4.644;2023-07-22T06:30:06;31.50;;;19.17;;
38629;SDS011;24384;51.988;4.644;2023-07-22T06:32:34;30.63;;;16.83;;
38629;SDS011;24384;51.988;4.644;2023-07-22T06:35:02;32.60;;;16.38;;
38629;SDS011;24384;51.988;4.644;2023-07-22T06:37:28;36.28;;;17.55;;
38629;SDS011;24384;51.988;4.644;2023-07-22T06:39:53;38.28;;;19.58;;
38629;SDS011;24384;51.988;4.644;2023-07-22T06:42:18;30.52;;;17.65;;
38629;SDS011;24384;51.988;4.644;2023-07-22T06:44:45;26.33;;;15.93;;
38629;SDS011;24384;51.988;4.644;2023-07-22T06:47:10;36.75;;;18.63;;
38629;SDS011;24384;51.988;4.644;2023-07-22T06:49:36;29.15;;;17.55;;
38629;SDS011;24384;51.988;4.644;2023-07-22T06:52:01;33.25;;;18.23;;
38629;SDS011;24384;51.988;4.644;2023-07-22T06:54:27;29.80;;;16.33;;
38629;SDS011;24384;51.988;4.644;2023-07-22T06:56:52;26.20;;;16.08;;
38629;SDS011;24384;51.988;4.644;2023-07-22T06:59:18;41.30;;;17.85;;
38629;SDS011;24384;51.988;4.644;2023-07-22T07:01:43;26.90;;;16.35;;
38629;SDS011;24384;51.988;4.644;2023-07-22T07:04:08;32.95;;;16.77;;
38629;SDS011;24384;51.988;4.644;2023-07-22T07:06:34;26.23;;;14.75;;
38629;SDS011;24384;51.988;4.644;2023-07-22T07:08:59;26.65;;;16.70;;
38629;SDS011;24384;51.988;4.644;2023-07-22T07:11:28;22.73;;;15.35;;
38629;SDS011;24384;51.988;4.644;2023-07-22T07:13:53;31.13;;;17.08;;
38629;SDS011;24384;51.988;4.644;2023-07-22T07:18:48;31.10;;;16.38;;
38629;SDS011;24384;51.988;4.644;2023-07-22T07:21:13;25.55;;;16.05;;
38629;SDS011;24384;51.988;4.644;2023-07-22T07:23:38;23.27;;;15.13;;
38629;SDS011;24384;51.988;4.644;2023-07-22T07:26:04;29.95;;;17.15;;
38629;SDS011;24384;51.988;4.644;2023-07-22T07:28:29;29.10;;;17.75;;
38629;SDS011;24384;51.988;4.644;2023-07-22T07:30:54;27.55;;;15.43;;
38629;SDS011;24384;51.988;4.644;2023-07-22T07:33:19;28.23;;;16.98;;
38629;SDS011;24384;51.988;4.644;2023-07-22T07:35:48;29.17;;;16.63;;
38629;SDS011;24384;51.988;4.644;2023-07-22T07:38:13;24.85;;;16.00;;
38629;SDS011;24384;51.988;4.644;2023-07-22T07:40:38;27.90;;;15.02;;
38629;SDS011;24384;51.988;4.644;2023-07-22T07:43:04;27.63;;;15.90;;
38629;SDS011;24384;51.988;4.644;2023-07-22T07:45:29;24.85;;;15.05;;
38629;SDS011;24384;51.988;4.644;2023-07-22T07:47:54;22.23;;;15.48;;
38629;SDS011;24384;51.988;4.644;2023-07-22T07:50:20;22.30;;;14.95;;
38629;SDS011;24384;51.988;4.644;2023-07-22T07:52:45;25.17;;;16.27;;
38629;SDS011;24384;51.988;4.644;2023-07-22T07:55:10;19.35;;;15.77;;
38629;SDS011;24384;51.988;4.644;2023-07-22T07:57:35;22.52;;;14.82;;
38629;SDS011;24384;51.988;4.644;2023-07-22T08:00:01;22.75;;;13.32;;
38629;SDS011;24384;51.988;4.644;2023-07-22T08:02:27;23.58;;;13.38;;
38629;SDS011;24384;51.988;4.644;2023-07-22T08:04:52;21.83;;;11.80;;
38629;SDS011;24384;51.988;4.644;2023-07-22T08:07:17;23.73;;;11.88;;
38629;SDS011;24384;51.988;4.644;2023-07-22T08:09:43;27.08;;;11.75;;
38629;SDS011;24384;51.988;4.644;2023-07-22T08:12:08;19.15;;;11.05;;
38629;SDS011;24384;51.988;4.644;2023-07-22T08:14:33;21.08;;;12.73;;
38629;SDS011;24384;51.988;4.644;2023-07-22T08:16:59;23.05;;;13.63;;
38629;SDS011;24384;51.988;4.644;2023-07-22T08:19:24;19.17;;;11.18;;
38629;SDS011;24384;51.988;4.644;2023-07-22T08:21:49;17.73;;;9.95;;
38629;SDS011;24384;51.988;4.644;2023-07-22T08:24:14;14.43;;;8.90;;
38629;SDS011;24384;51.988;4.644;2023-07-22T08:26:40;14.70;;;7.50;;
38629;SDS011;24384;51.988;4.644;2023-07-22T08:29:05;14.63;;;8.20;;
38629;SDS011;24384;51.988;4.644;2023-07-22T08:31:30;14.27;;;7.22;;
38629;SDS011;24384;51.988;4.644;2023-07-22T08:33:56;14.18;;;7.32;;
38629;SDS011;24384;51.988;4.644;2023-07-22T08:36:21;16.52;;;7.35;;
38629;SDS011;24384;51.988;4.644;2023-07-22T08:38:47;12.05;;;6.57;;
38629;SDS011;24384;51.988;4.644;2023-07-22T08:41:15;14.68;;;6.68;;
38629;SDS011;24384;51.988;4.644;2023-07-22T08:43:41;17.23;;;6.80;;
38629;SDS011;24384;51.988;4.644;2023-07-22T08:46:09;13.38;;;6.13;;
38629;SDS011;24384;51.988;4.644;2023-07-22T08:48:36;9.02;;;4.85;;
38629;SDS011;24384;51.988;4.644;2023-07-22T08:51:18;13.40;;;5.13;;
38629;SDS011;24384;51.988;4.644;2023-07-22T08:53:44;9.52;;;5.07;;
38629;SDS011;24384;51.988;4.644;2023-07-22T08:56:10;9.80;;;4.50;;
38629;SDS011;24384;51.988;4.644;2023-07-22T08:58:36;12.38;;;5.22;;
38629;SDS011;24384;51.988;4.644;2023-07-22T09:01:03;12.85;;;4.53;;
38629;SDS011;24384;51.988;4.644;2023-07-22T09:03:29;10.55;;;4.38;;
38629;SDS011;24384;51.988;4.644;2023-07-22T09:05:55;8.32;;;3.92;;
38629;SDS011;24384;51.988;4.644;2023-07-22T09:08:21;15.10;;;5.25;;
38629;SDS011;24384;51.988;4.644;2023-07-22T09:10:47;14.82;;;5.55;;
38629;SDS011;24384;51.988;4.644;2023-07-22T09:13:13;12.20;;;4.93;;
38629;SDS011;24384;51.988;4.644;2023-07-22T09:15:39;12.75;;;5.63;;
38629;SDS011;24384;51.988;4.644;2023-07-22T09:18:05;17.85;;;5.95;;
38629;SDS011;24384;51.988;4.644;2023-07-22T09:20:31;10.85;;;5.75;;
38629;SDS011;24384;51.988;4.644;2023-07-22T09:22:58;15.38;;;4.65;;
38629;SDS011;24384;51.988;4.644;2023-07-22T09:25:25;11.77;;;4.88;;
38629;SDS011;24384;51.988;4.644;2023-07-22T09:27:52;27.20;;;5.25;;
38629;SDS011;24384;51.988;4.644;2023-07-22T09:32:47;8.32;;;4.13;;
38629;SDS011;24384;51.988;4.644;2023-07-22T09:35:13;6.85;;;3.92;;
38629;SDS011;24384;51.988;4.644;2023-07-22T09:37:38;11.85;;;3.95;;
38629;SDS011;24384;51.988;4.644;2023-07-22T09:40:23;11.00;;;3.80;;
38629;SDS011;24384;51.988;4.644;2023-07-22T09:45:16;9.45;;;3.97;;
38629;SDS011;24384;51.988;4.644;2023-07-22T09:47:43;8.98;;;4.18;;
38629;SDS011;24384;51.988;4.644;2023-07-22T09:50:11;8.02;;;3.80;;
38629;SDS011;24384;51.988;4.644;2023-07-22T09:52:41;14.75;;;4.55;;
38629;SDS011;24384;51.988;4.644;2023-07-22T09:55:12;8.50;;;3.83;;
38629;SDS011;24384;51.988;4.644;2023-07-22T09:57:41;7.88;;;3.95;;
38629;SDS011;24384;51.988;4.644;2023-07-22T10:00:14;8.07;;;3.92;;
38629;SDS011;24384;51.988;4.644;2023-07-22T10:02:41;6.88;;;3.78;;
38629;SDS011;24384;51.988;4.644;2023-07-22T10:05:14;7.93;;;3.50;;
38629;SDS011;24384;51.988;4.644;2023-07-22T10:07:45;6.10;;;4.25;;
38629;SDS011;24384;51.988;4.644;2023-07-22T10:10:14;6.40;;;3.25;;
38629;SDS011;24384;51.988;4.644;2023-07-22T10:12:41;4.75;;;3.10;;
38629;SDS011;24384;51.988;4.644;2023-07-22T10:15:09;9.55;;;3.75;;
38629;SDS011;24384;51.988;4.644;2023-07-22T10:17:41;9.45;;;3.90;;
38629;SDS011;24384;51.988;4.644;2023-07-22T10:20:08;7.80;;;3.88;;
38629;SDS011;24384;51.988;4.644;2023-07-22T10:22:45;7.65;;;3.10;;
38629;SDS011;24384;51.988;4.644;2023-07-22T10:25:12;8.38;;;3.60;;
38629;SDS011;24384;51.988;4.644;2023-07-22T10:27:39;9.13;;;3.63;;
38629;SDS011;24384;51.988;4.644;2023-07-22T10:30:07;8.35;;;3.08;;
38629;SDS011;24384;51.988;4.644;2023-07-22T10:32:40;6.57;;;3.13;;
38629;SDS011;24384;51.988;4.644;2023-07-22T10:35:09;7.78;;;3.00;;
38629;SDS011;24384;51.988;4.644;2023-07-22T10:37:36;6.93;;;3.60;;
38629;SDS011;24384;51.988;4.644;2023-07-22T10:40:16;7.75;;;3.75;;
38629;SDS011;24384;51.988;4.644;2023-07-22T10:43:02;6.63;;;2.75;;
38629;SDS011;24384;51.988;4.644;2023-07-22T10:45:29;8.80;;;3.65;;
38629;SDS011;24384;51.988;4.644;2023-07-22T10:48:00;9.52;;;3.30;;
38629;SDS011;24384;51.988;4.644;2023-07-22T10:50:49;5.53;;;2.42;;
38629;SDS011;24384;51.988;4.644;2023-07-22T10:58:31;5.20;;;3.10;;
38629;SDS011;24384;51.988;4.644;2023-07-22T11:01:54;6.35;;;2.90;;
38629;SDS011;24384;51.988;4.644;2023-07-22T11:04:34;11.23;;;3.05;;
38629;SDS011;24384;51.988;4.644;2023-07-22T11:06:56;9.15;;;2.92;;
38629;SDS011;24384;51.988;4.644;2023-07-22T11:12:04;6.93;;;2.70;;
38629;SDS011;24384;51.988;4.644;2023-07-22T11:14:31;7.10;;;2.80;;
38629;SDS011;24384;51.988;4.644;2023-07-22T11:17:02;5.90;;;2.70;;
38629;SDS011;24384;51.988;4.644;2023-07-22T11:19:29;7.35;;;3.10;;
38629;SDS011;24384;51.988;4.644;2023-07-22T11:21:55;8.70;;;2.20;;
38629;SDS011;24384;51.988;4.644;2023-07-22T11:24:21;3.63;;;2.20;;
38629;SDS011;24384;51.988;4.644;2023-07-22T11:26:48;6.07;;;2.58;;
38629;SDS011;24384;51.988;4.644;2023-07-22T11:29:13;8.32;;;2.53;;
38629;SDS011;24384;51.988;4.644;2023-07-22T11:31:40;3.58;;;2.30;;
38629;SDS011;24384;51.988;4.644;2023-07-22T11:34:09;6.00;;;2.38;;
38629;SDS011;24384;51.988;4.644;2023-07-22T11:36:35;5.97;;;2.40;;
38629;SDS011;24384;51.988;4.644;2023-07-22T11:39:04;4.95;;;1.95;;
38629;SDS011;24384;51.988;4.644;2023-07-22T11:41:31;9.82;;;2.10;;
38629;SDS011;24384;51.988;4.644;2023-07-22T11:43:57;5.18;;;2.03;;
38629;SDS011;24384;51.988;4.644;2023-07-22T11:46:23;8.85;;;2.60;;
38629;SDS011;24384;51.988;4.644;2023-07-22T11:48:53;5.82;;;2.33;;
38629;SDS011;24384;51.988;4.644;2023-07-22T11:51:23;7.88;;;2.25;;
38629;SDS011;24384;51.988;4.644;2023-07-22T11:53:50;6.15;;;2.10;;
38629;SDS011;24384;51.988;4.644;2023-07-22T11:56:26;5.55;;;1.70;;
38629;SDS011;24384;51.988;4.644;2023-07-22T11:58:53;4.70;;;1.80;;
38629;SDS011;24384;51.988;4.644;2023-07-22T12:01:19;4.03;;;1.83;;
38629;SDS011;24384;51.988;4.644;2023-07-22T12:03:45;4.90;;;1.73;;
38629;SDS011;24384;51.988;4.644;2023-07-22T12:06:11;5.38;;;2.10;;
38629;SDS011;24384;51.988;4.644;2023-07-22T12:08:42;4.20;;;1.88;;
38629;SDS011;24384;51.988;4.644;2023-07-22T12:11:15;7.63;;;2.25;;
38629;SDS011;24384;51.988;4.644;2023-07-22T12:13:41;5.00;;;1.70;;
38629;SDS011;24384;51.988;4.644;2023-07-22T12:16:09;5.15;;;1.60;;
38629;SDS011;24384;51.988;4.644;2023-07-22T12:18:41;3.88;;;1.90;;
38629;SDS011;24384;51.988;4.644;2023-07-22T12:21:10;7.50;;;1.92;;
38629;SDS011;24384;51.988;4.644;2023-07-22T12:23:36;4.70;;;2.17;;
38629;SDS011;24384;51.988;4.644;2023-07-22T12:26:02;7.90;;;1.92;;
38629;SDS011;24384;51.988;4.644;2023-07-22T12:28:28;8.48;;;1.98;;
38629;SDS011;24384;51.988;4.644;2023-07-22T12:30:53;9.43;;;2.00;;
38629;SDS011;24384;51.988;4.644;2023-07-22T12:33:19;6.38;;;2.10;;
38629;SDS011;24384;51.988;4.644;2023-07-22T12:35:45;3.08;;;1.45;;
38629;SDS011;24384;51.988;4.644;2023-07-22T12:38:10;4.10;;;1.95;;
38629;SDS011;24384;51.988;4.644;2023-07-22T12:40:35;4.50;;;1.95;;
38629;SDS011;24384;51.988;4.644;2023-07-22T12:43:00;3.80;;;1.58;;
38629;SDS011;24384;51.988;4.644;2023-07-22T12:45:26;4.35;;;2.20;;
38629;SDS011;24384;51.988;4.644;2023-07-22T12:47:51;4.65;;;2.15;;
38629;SDS011;24384;51.988;4.644;2023-07-22T12:50:16;3.03;;;1.60;;
38629;SDS011;24384;51.988;4.644;2023-07-22T12:52:41;5.32;;;2.13;;
38629;SDS011;24384;51.988;4.644;2023-07-22T12:55:07;4.03;;;1.60;;
38629;SDS011;24384;51.988;4.644;2023-07-22T12:57:32;2.92;;;1.75;;
38629;SDS011;24384;51.988;4.644;2023-07-22T12:59:58;5.32;;;2.25;;
38629;SDS011;24384;51.988;4.644;2023-07-22T13:02:23;5.22;;;2.00;;
38629;SDS011;24384;51.988;4.644;2023-07-22T13:04:50;2.80;;;1.50;;
38629;SDS011;24384;51.988;4.644;2023-07-22T13:07:15;16.52;;;3.05;;
38629;SDS011;24384;51.988;4.644;2023-07-22T13:09:41;7.85;;;2.15;;
38629;SDS011;24384;51.988;4.644;2023-07-22T13:12:08;4.55;;;2.13;;
38629;SDS011;24384;51.988;4.644;2023-07-22T13:14:33;6.20;;;1.85;;
38629;SDS011;24384;51.988;4.644;2023-07-22T13:16:58;4.78;;;2.15;;
38629;SDS011;24384;51.988;4.644;2023-07-22T13:19:24;4.97;;;1.60;;
38629;SDS011;24384;51.988;4.644;2023-07-22T13:21:49;4.57;;;1.77;;
38629;SDS011;24384;51.988;4.644;2023-07-22T13:24:14;5.45;;;2.08;;
38629;SDS011;24384;51.988;4.644;2023-07-22T13:26:41;4.85;;;1.77;;
38629;SDS011;24384;51.988;4.644;2023-07-22T13:29:06;3.65;;;1.80;;
38629;SDS011;24384;51.988;4.644;2023-07-22T13:31:34;3.15;;;1.95;;
38629;SDS011;24384;51.988;4.644;2023-07-22T13:33:59;4.13;;;1.67;;
38629;SDS011;24384;51.988;4.644;2023-07-22T13:36:24;5.97;;;1.85;;
38629;SDS011;24384;51.988;4.644;2023-07-22T13:38:50;3.97;;;1.67;;
38629;SDS011;24384;51.988;4.644;2023-07-22T13:41:15;4.85;;;2.35;;
38629;SDS011;24384;51.988;4.644;2023-07-22T13:43:40;3.83;;;1.50;;
38629;SDS011;24384;51.988;4.644;2023-07-22T13:46:05;4.15;;;2.03;;
38629;SDS011;24384;51.988;4.644;2023-07-22T13:48:30;4.85;;;1.85;;
38629;SDS011;24384;51.988;4.644;2023-07-22T13:50:56;5.53;;;1.70;;
38629;SDS011;24384;51.988;4.644;2023-07-22T13:53:21;7.47;;;1.70;;
38629;SDS011;24384;51.988;4.644;2023-07-22T13:55:47;6.70;;;1.85;;
38629;SDS011;24384;51.988;4.644;2023-07-22T13:58:12;4.30;;;2.03;;
38629;SDS011;24384;51.988;4.644;2023-07-22T14:00:37;6.07;;;1.70;;
38629;SDS011;24384;51.988;4.644;2023-07-22T14:03:02;4.35;;;1.83;;
38629;SDS011;24384;51.988;4.644;2023-07-22T14:05:28;4.75;;;1.98;;
38629;SDS011;24384;51.988;4.644;2023-07-22T14:07:53;3.25;;;1.40;;
38629;SDS011;24384;51.988;4.644;2023-07-22T14:10:18;6.80;;;1.80;;
38629;SDS011;24384;51.988;4.644;2023-07-22T14:12:44;7.60;;;2.60;;
38629;SDS011;24384;51.988;4.644;2023-07-22T14:15:09;10.18;;;2.10;;
38629;SDS011;24384;51.988;4.644;2023-07-22T14:17:35;4.75;;;2.22;;
38629;SDS011;24384;51.988;4.644;2023-07-22T14:20:03;5.57;;;1.90;;
38629;SDS011;24384;51.988;4.644;2023-07-22T14:22:29;5.63;;;2.00;;
38629;SDS011;24384;51.988;4.644;2023-07-22T14:24:55;3.47;;;1.95;;
38629;SDS011;24384;51.988;4.644;2023-07-22T14:27:20;4.78;;;2.00;;
38629;SDS011;24384;51.988;4.644;2023-07-22T14:29:45;5.50;;;2.20;;
38629;SDS011;24384;51.988;4.644;2023-07-22T14:32:10;5.90;;;2.42;;
38629;SDS011;24384;51.988;4.644;2023-07-22T14:34:36;5.30;;;2.10;;
38629;SDS011;24384;51.988;4.644;2023-07-22T14:37:01;8.75;;;2.67;;
38629;SDS011;24384;51.988;4.644;2023-07-22T14:39:28;4.15;;;1.95;;
38629;SDS011;24384;51.988;4.644;2023-07-22T14:41:54;7.95;;;2.20;;
38629;SDS011;24384;51.988;4.644;2023-07-22T14:44:19;6.70;;;2.30;;
38629;SDS011;24384;51.988;4.644;2023-07-22T14:46:45;4.63;;;2.28;;